Terminal Aerodrome Forecast
Issued by NWS

Home | Current Version | Previous Version | Graphics & Text | Print | Product List | Glossary On
Versions: 1 2 3 4 5 6 7 8 9 10 11 12 13 14 15 16
000
FTUS41 KCLE 240500
TAFFDY
TAF
KFDY 240536Z 2406/2506 08006KT 2SM -RA BR OVC003
     FM240800 08006KT 1SM -RA BR OVC002
     FM241200 10010KT 3SM BR OVC004
     FM241500 14012G20KT P6SM OVC008
     FM241900 18015G30KT P6SM -SHRA OVC012
     FM242130 25025G45KT P6SM OVC015=

USA.gov is the U.S. government's official web portal to all federal, state and local government web resources and services.